Pagrindinis puslapis
METAR-TAF:

METAR-TAF

Oro uostai :

Udontanis, Tailandas

platuma: 17-23N, ilguma: 102-48E, Aukštis: 177 m

Dabartinis oras

Ataskaita buvo paskelbta 1 valandą ir 2 minutes, ne 13:00 UTC
Vėjas 1 kt nuo kintamojo kryptimis
Temperatūra 21°C
Drėgmė 60%
Slėgis 1010 hPa
Matomumas: 8000 m

METAR: VTUD 151300Z VRB01KT 8000 NSC 21/13 Q1010 NOSIG

Laikas: 21:02 (14:02 UTC)

Prognozė

Ataskaita buvo paskelbta 3 valandos ir 2 minutes, ne 11:00 UTC
Prognozė galioja nuo 15 metu 12 UTC su 16 metu 12 UTC
Vėjas 3 kt iš Šiaurės
Matomumas: 9000 m
Tapsmas
nuo 15 metu 22 UTC su 15 metu 24 UTC
Matomumas: 3500 m
rūkana
Tapsmas
nuo 16 metu 01 UTC su 16 metu 03 UTC
Matomumas: 8000 m

TAF: VTUD 151100Z 1512/1612 01003KT 9000 NSC BECMG 1522/1524 3500 BR BECMG 1601/1603 8000 NSW

Orai ataskaitas ir orų prognozės (METAR, TAF).

turimą stotys yra geltonos ir raudonos taškus žemėlapyje.

Perkelti pele per norėdami pamatyti stoties vardą.

Tada spustelėkite, norėdami matyti oro stebėjimo ir prognozės.

Norėdami pakeisti žemėlapį: spustelėkite ant žalios mygtukų su juodo kryžiaus žemyn,; žalią mygtuką su brūkšneliu, jei norite nutolinti; arba žalių rodyklių gretimoms žemėlapius.


METAR-TAF: